createdAt,value
2018-02-05T00:01:38.053Z,82.00
2018-02-05T00:04:05.684Z,81.70
2018-02-05T00:06:33.328Z,82.00
2018-02-05T00:09:00.888Z,82.00
2018-02-05T00:11:29.256Z,81.60
2018-02-05T00:13:56.834Z,81.60
2018-02-05T00:16:24.398Z,82.10
2018-02-05T00:22:08.854Z,82.10
2018-02-05T00:24:37.246Z,81.60
2018-02-05T00:27:05.595Z,81.60
2018-02-05T00:29:33.199Z,81.60
2018-02-05T00:32:00.793Z,81.00
2018-02-05T00:34:28.391Z,80.70
2018-02-05T00:36:56.786Z,81.70
2018-02-05T00:39:24.397Z,81.60
2018-02-05T00:41:52.032Z,81.50
2018-02-05T00:44:19.627Z,80.90
2018-02-05T00:46:47.262Z,80.70
2018-02-05T00:49:14.859Z,80.50
2018-02-05T00:51:42.450Z,80.70
2018-02-05T00:54:10.046Z,80.80
2018-02-05T00:56:37.639Z,80.80
2018-02-05T00:59:05.219Z,81.00
2018-02-05T01:01:33.582Z,81.30
2018-02-05T01:04:01.246Z,81.30
2018-02-05T01:06:29.622Z,81.40
2018-02-05T01:08:57.254Z,81.40
2018-02-05T01:11:24.886Z,81.60
2018-02-05T01:13:52.456Z,81.50
2018-02-05T01:16:20.092Z,81.30
2018-02-05T01:18:47.702Z,81.10
2018-02-05T01:21:15.336Z,80.70
2018-02-05T01:23:42.930Z,80.70
2018-02-05T01:26:10.494Z,80.50
2018-02-05T01:28:38.118Z,81.00
2018-02-05T01:31:06.486Z,82.10
2018-02-05T01:33:34.039Z,82.10
2018-02-05T01:36:01.661Z,81.80
2018-02-05T01:38:29.271Z,81.70
2018-02-05T01:40:56.918Z,82.50
2018-02-05T01:43:24.488Z,81.80
2018-02-05T01:45:52.084Z,81.80
2018-02-05T01:48:19.706Z,82.20
2018-02-05T01:50:47.312Z,81.60
2018-02-05T01:53:14.881Z,81.90
2018-02-05T01:55:42.477Z,82.40
2018-02-05T01:58:10.065Z,82.80
2018-02-05T02:00:37.667Z,82.60
2018-02-05T02:03:06.066Z,82.50
2018-02-05T02:05:34.466Z,82.70
2018-02-05T02:08:02.105Z,82.70
2018-02-05T02:10:29.710Z,83.10
2018-02-05T02:12:57.331Z,83.70
2018-02-05T02:15:24.907Z,83.70
2018-02-05T02:17:52.551Z,83.40
2018-02-05T02:23:34.157Z,83.50
2018-02-05T02:26:01.777Z,84.00
2018-02-05T02:28:29.428Z,84.70
2018-02-05T02:30:57.059Z,84.90
2018-02-05T02:33:24.673Z,84.60
2018-02-05T02:35:52.311Z,84.50
2018-02-05T02:38:19.906Z,85.40
2018-02-05T02:40:48.305Z,85.90
2018-02-05T02:43:15.943Z,85.80
2018-02-05T02:45:44.282Z,86.70
2018-02-05T02:48:11.937Z,86.00
2018-02-05T02:50:39.536Z,86.20
2018-02-05T02:53:07.162Z,86.10
2018-02-05T02:55:34.742Z,85.90
2018-02-05T02:58:02.367Z,85.80
2018-02-05T03:00:29.938Z,86.10
2018-02-05T03:02:57.514Z,85.90
2018-02-05T03:05:25.126Z,86.20
2018-02-05T03:07:52.696Z,86.00
2018-02-05T03:10:20.294Z,85.80
2018-02-05T03:12:47.866Z,85.70
2018-02-05T03:15:15.468Z,85.20
2018-02-05T03:17:43.025Z,85.00
2018-02-05T03:20:10.617Z,84.80
2018-02-05T03:22:38.189Z,85.00
2018-02-05T03:25:05.810Z,84.70
2018-02-05T03:27:33.434Z,84.80
2018-02-05T03:30:01.052Z,84.70
2018-02-05T03:32:28.638Z,84.10
2018-02-05T03:34:56.246Z,84.60
2018-02-05T03:37:23.853Z,84.60
2018-02-05T03:39:51.420Z,84.60
2018-02-05T03:42:19.062Z,84.50
2018-02-05T03:44:46.686Z,84.90
2018-02-05T03:47:14.254Z,84.40
2018-02-05T03:49:41.826Z,84.40
2018-02-05T03:52:09.446Z,84.40
2018-02-05T03:54:37.841Z,84.70
2018-02-05T03:57:06.197Z,84.80
2018-02-05T03:59:34.572Z,84.90
2018-02-05T04:02:02.158Z,84.80
2018-02-05T04:04:29.774Z,84.70
2018-02-05T04:07:02.932Z,85.00
2018-02-05T04:09:30.561Z,85.00
2018-02-05T04:11:58.947Z,84.80
2018-02-05T04:14:27.289Z,84.90
2018-02-05T04:16:54.916Z,84.80
2018-02-05T04:19:22.536Z,85.00
2018-02-05T04:21:50.886Z,84.90
2018-02-05T04:24:18.481Z,84.90
2018-02-05T04:26:46.855Z,84.70
2018-02-05T04:29:15.194Z,84.30
2018-02-05T04:31:42.843Z,84.20
2018-02-05T04:34:10.450Z,84.10
2018-02-05T04:36:38.812Z,84.00
2018-02-05T04:39:06.394Z,83.90
2018-02-05T04:41:34.755Z,84.10
2018-02-05T04:44:04.160Z,84.00
2018-02-05T04:46:32.522Z,83.00
2018-02-05T04:49:00.134Z,82.90
2018-02-05T04:51:27.694Z,83.10
2018-02-05T04:53:55.255Z,83.40
2018-02-05T04:56:22.830Z,83.50
2018-02-05T04:58:50.438Z,83.20
2018-02-05T05:01:18.027Z,83.00
2018-02-05T05:03:45.637Z,82.50
2018-02-05T05:06:13.202Z,82.50
2018-02-05T05:08:40.792Z,83.00
2018-02-05T05:11:09.160Z,82.50
2018-02-05T05:13:37.479Z,83.20
2018-02-05T05:16:05.132Z,83.50
2018-02-05T05:18:32.739Z,82.80
2018-02-05T05:21:00.355Z,82.70
2018-02-05T05:23:27.962Z,83.00
2018-02-05T05:25:55.567Z,83.50
2018-02-05T05:28:23.094Z,84.70
2018-02-05T05:30:50.629Z,83.50
2018-02-05T05:33:18.202Z,83.50
2018-02-05T05:35:45.845Z,83.80
2018-02-05T05:38:13.457Z,83.80
2018-02-05T05:40:41.030Z,83.20
2018-02-05T05:43:08.631Z,82.90
2018-02-05T05:45:36.199Z,82.60
2018-02-05T05:48:04.635Z,82.60
2018-02-05T05:50:32.223Z,82.60
2018-02-05T05:52:59.800Z,83.60
2018-02-05T05:55:27.418Z,82.50
2018-02-05T05:57:54.990Z,82.90
2018-02-05T06:00:22.639Z,83.00
2018-02-05T06:02:50.193Z,83.20
2018-02-05T06:05:17.826Z,83.20
2018-02-05T06:07:45.446Z,83.00
2018-02-05T06:10:13.070Z,82.50
2018-02-05T06:12:40.682Z,82.10
2018-02-05T06:15:08.245Z,81.80
2018-02-05T06:17:35.850Z,82.00
2018-02-05T06:20:03.417Z,82.00
2018-02-05T06:22:31.038Z,81.30
2018-02-05T06:24:58.629Z,81.30
2018-02-05T06:27:26.255Z,81.50
2018-02-05T06:29:54.590Z,82.20
2018-02-05T06:32:22.258Z,81.60
2018-02-05T06:34:49.831Z,80.90
2018-02-05T06:37:17.420Z,79.50
2018-02-05T06:39:45.839Z,80.10
2018-02-05T06:42:13.407Z,80.00
2018-02-05T06:44:41.039Z,80.20
2018-02-05T06:47:08.607Z,80.90
2018-02-05T06:49:36.206Z,80.70
2018-02-05T06:52:15.746Z,81.10
2018-02-05T06:54:55.094Z,81.50
2018-02-05T06:57:22.742Z,81.90
2018-02-05T06:59:50.340Z,82.10
2018-02-05T07:02:18.710Z,81.60
2018-02-05T07:04:47.042Z,81.80
2018-02-05T07:07:14.643Z,81.30
2018-02-05T07:09:42.211Z,81.30
2018-02-05T07:12:10.588Z,81.10
2018-02-05T07:14:38.983Z,81.40
2018-02-05T07:17:06.617Z,81.40
2018-02-05T07:19:34.200Z,80.80
2018-02-05T07:22:01.810Z,80.40
2018-02-05T07:24:29.363Z,79.80
2018-02-05T07:26:57.008Z,79.30
2018-02-05T07:29:24.566Z,78.90
2018-02-05T07:31:52.149Z,78.90
2018-02-05T07:34:32.128Z,78.90
2018-02-05T07:36:59.698Z,78.60
2018-02-05T07:39:28.036Z,77.50
2018-02-05T07:41:55.632Z,77.40
2018-02-05T07:44:24.022Z,75.80
2018-02-05T07:46:52.373Z,75.10
2018-02-05T07:49:19.994Z,75.10
2018-02-05T07:51:48.338Z,74.90
2018-02-05T07:54:16.667Z,74.90
2018-02-05T07:56:44.293Z,74.80
2018-02-05T07:59:11.858Z,74.40
2018-02-05T08:01:39.466Z,73.30
2018-02-05T08:04:07.023Z,71.90
2018-02-05T08:06:34.623Z,72.40
2018-02-05T08:09:02.200Z,71.80
2018-02-05T08:11:29.766Z,71.60
2018-02-05T08:13:57.386Z,72.00
2018-02-05T08:16:25.704Z,70.80
2018-02-05T08:18:53.309Z,70.00
2018-02-05T08:21:20.894Z,68.80
2018-02-05T08:23:49.254Z,67.80
2018-02-05T08:26:16.864Z,67.70
2018-02-05T08:28:44.454Z,67.60
2018-02-05T08:31:12.026Z,67.20
2018-02-05T08:33:39.619Z,68.00
2018-02-05T08:36:07.176Z,67.50
2018-02-05T08:38:34.766Z,67.60
2018-02-05T08:41:02.362Z,68.10
2018-02-05T08:43:29.946Z,68.70
2018-02-05T08:45:58.346Z,68.30
2018-02-05T08:48:25.927Z,68.20
2018-02-05T08:50:53.554Z,67.60
2018-02-05T08:53:21.964Z,67.10
2018-02-05T08:55:49.608Z,67.00
2018-02-05T08:58:17.242Z,66.20
2018-02-05T09:00:45.570Z,64.80
2018-02-05T09:03:13.131Z,64.70
2018-02-05T09:05:40.721Z,63.80
2018-02-05T09:08:08.304Z,62.30
2018-02-05T09:10:35.897Z,63.50
2018-02-05T09:13:03.457Z,61.80
2018-02-05T09:15:31.028Z,62.30
2018-02-05T09:17:58.671Z,60.10
2018-02-05T09:20:26.250Z,59.30
2018-02-05T09:22:53.876Z,58.20
2018-02-05T09:25:21.506Z,58.90
2018-02-05T09:27:49.105Z,57.30
2018-02-05T09:30:16.679Z,57.70
2018-02-05T09:32:44.266Z,56.10
2018-02-05T09:35:11.842Z,53.30
2018-02-05T09:37:39.483Z,54.30
2018-02-05T09:40:07.051Z,53.90
2018-02-05T09:42:34.662Z,54.90
2018-02-05T09:45:02.248Z,53.10
2018-02-05T09:50:33.265Z,50.60
2018-02-05T09:53:01.673Z,47.30
2018-02-05T09:55:29.242Z,47.10
2018-02-05T09:57:56.854Z,46.80
2018-02-05T10:00:25.251Z,48.40
2018-02-05T10:02:53.595Z,51.50
2018-02-05T10:05:21.219Z,51.50
2018-02-05T10:07:48.779Z,52.90
2018-02-05T10:10:16.351Z,53.50
2018-02-05T10:12:43.978Z,53.10
2018-02-05T10:15:11.542Z,52.60
2018-02-05T10:17:39.146Z,53.10
2018-02-05T10:20:06.779Z,51.10
2018-02-05T10:22:34.372Z,50.20
2018-02-05T10:25:01.919Z,50.00
2018-02-05T10:27:29.550Z,47.20
2018-02-05T10:29:57.138Z,45.90
2018-02-05T10:32:24.755Z,46.10
2018-02-05T10:34:52.350Z,46.10
2018-02-05T10:37:19.955Z,47.40
2018-02-05T10:39:48.347Z,46.30
2018-02-05T10:42:15.914Z,46.30
2018-02-05T10:44:43.510Z,46.70
2018-02-05T10:47:11.093Z,45.60
2018-02-05T10:49:38.702Z,45.30
2018-02-05T10:52:06.303Z,44.30
2018-02-05T10:54:33.926Z,42.60
2018-02-05T10:57:01.505Z,41.80
2018-02-05T10:59:29.102Z,42.60
2018-02-05T11:01:56.720Z,41.10
2018-02-05T11:04:24.346Z,40.30
2018-02-05T11:06:52.721Z,44.00
2018-02-05T11:09:20.301Z,43.90
2018-02-05T11:11:47.858Z,44.90
2018-02-05T11:14:15.459Z,43.70
2018-02-05T11:16:43.083Z,44.30
2018-02-05T11:19:10.650Z,44.70
2018-02-05T11:21:38.255Z,46.00
2018-02-05T11:24:05.891Z,47.50
2018-02-05T11:26:33.479Z,49.20
2018-02-05T11:29:01.042Z,50.00
2018-02-05T11:31:28.647Z,51.50
2018-02-05T11:33:56.214Z,52.80
2018-02-05T11:36:24.577Z,53.00
2018-02-05T11:38:52.181Z,52.90
2018-02-05T11:41:19.798Z,52.90
2018-02-05T11:43:47.470Z,52.90
2018-02-05T11:46:15.790Z,53.60
2018-02-05T11:48:43.393Z,53.50
2018-02-05T11:51:10.977Z,52.80
2018-02-05T11:53:38.571Z,52.00
2018-02-05T11:56:06.204Z,52.10
2018-02-05T11:58:33.767Z,51.60
2018-02-05T12:01:01.319Z,51.90
2018-02-05T12:03:29.060Z,53.70
2018-02-05T12:05:56.652Z,53.30
2018-02-05T12:08:24.240Z,54.20
2018-02-05T12:10:51.834Z,54.10
2018-02-05T12:13:20.215Z,54.20
2018-02-05T12:15:47.797Z,54.30
2018-02-05T12:18:16.194Z,53.60
2018-02-05T12:20:43.765Z,53.60
2018-02-05T12:23:11.343Z,53.50
2018-02-05T12:25:38.976Z,53.80
2018-02-05T12:28:06.546Z,55.10
2018-02-05T12:30:34.126Z,53.80
2018-02-05T12:33:02.502Z,53.30
2018-02-05T12:35:30.099Z,53.30
2018-02-05T12:37:57.740Z,53.20
2018-02-05T12:40:26.147Z,53.60
2018-02-05T12:42:53.716Z,53.60
2018-02-05T12:45:21.319Z,55.20
2018-02-05T12:47:48.956Z,54.40
2018-02-05T12:50:16.572Z,54.70
2018-02-05T12:52:44.189Z,53.80
2018-02-05T12:55:11.795Z,54.30
2018-02-05T12:57:39.405Z,54.20
2018-02-05T13:00:09.484Z,54.00
2018-02-05T13:02:41.687Z,54.70
2018-02-05T13:05:13.119Z,53.30
2018-02-05T13:07:40.703Z,52.30
2018-02-05T13:10:08.299Z,52.60
2018-02-05T13:12:36.679Z,53.40
2018-02-05T13:15:04.253Z,53.40
2018-02-05T13:17:31.870Z,53.30
2018-02-05T13:19:59.476Z,52.90
2018-02-05T13:22:27.081Z,52.80
2018-02-05T13:24:54.711Z,52.70
2018-02-05T13:27:22.328Z,52.50
2018-02-05T13:29:50.687Z,52.60
2018-02-05T13:32:18.294Z,52.60
2018-02-05T13:34:45.872Z,52.80
2018-02-05T13:37:13.474Z,53.30
2018-02-05T13:39:41.868Z,53.00
2018-02-05T13:42:10.264Z,52.60
2018-02-05T13:44:37.883Z,52.60
2018-02-05T13:47:05.495Z,51.90
2018-02-05T13:49:33.101Z,52.00
2018-02-05T13:52:00.664Z,52.70
2018-02-05T13:54:28.258Z,52.60
2018-02-05T13:56:55.872Z,52.10
2018-02-05T13:59:23.495Z,52.10
2018-02-05T14:01:51.058Z,52.50
2018-02-05T14:04:18.662Z,52.50
2018-02-05T14:06:46.255Z,52.20
2018-02-05T14:09:14.644Z,51.40
2018-02-05T14:11:42.206Z,51.30
2018-02-05T14:14:09.783Z,52.50
2018-02-05T14:16:37.382Z,50.80
2018-02-05T14:19:10.551Z,51.10
2018-02-05T14:21:38.111Z,51.70
2018-02-05T14:24:05.671Z,51.00
2018-02-05T14:26:33.279Z,51.10
2018-02-05T14:29:01.625Z,51.90
2018-02-05T14:31:29.237Z,51.90
2018-02-05T14:33:56.818Z,51.20
2018-02-05T14:36:24.429Z,52.10
2018-02-05T14:38:52.762Z,51.90
2018-02-05T14:41:24.108Z,51.80
2018-02-05T14:44:02.434Z,52.30
2018-02-05T14:46:29.992Z,52.20
2018-02-05T14:48:57.540Z,52.60
2018-02-05T14:51:31.890Z,53.00
2018-02-05T14:53:59.439Z,52.90
2018-02-05T14:56:27.061Z,53.10
2018-02-05T14:58:54.662Z,52.40
2018-02-05T15:01:22.215Z,52.40
2018-02-05T15:03:49.848Z,51.50
2018-02-05T15:06:17.406Z,51.60
2018-02-05T15:08:45.007Z,50.00
2018-02-05T15:11:12.588Z,50.30
2018-02-05T15:13:40.994Z,49.60
2018-02-05T15:16:09.375Z,49.90
2018-02-05T15:18:36.978Z,49.20
2018-02-05T15:21:04.582Z,50.10
2018-02-05T15:23:32.212Z,50.90
2018-02-05T15:25:59.780Z,52.20
2018-02-05T15:28:28.143Z,54.30
2018-02-05T15:30:55.751Z,54.30
2018-02-05T15:33:23.344Z,54.70
2018-02-05T15:35:51.003Z,54.30
2018-02-05T15:38:18.630Z,54.80
2018-02-05T15:40:46.245Z,55.20
2018-02-05T15:43:13.853Z,55.10
2018-02-05T15:45:41.489Z,55.50
2018-02-05T15:48:09.855Z,56.50
2018-02-05T15:50:37.493Z,56.40
2018-02-05T15:53:05.112Z,57.60
2018-02-05T15:55:32.746Z,57.20
2018-02-05T15:58:00.318Z,57.60
2018-02-05T16:00:28.695Z,57.70
2018-02-05T16:02:56.309Z,57.70
2018-02-05T16:05:23.920Z,57.90
2018-02-05T16:07:52.562Z,58.00
2018-02-05T16:10:20.164Z,59.00
2018-02-05T16:12:47.782Z,59.10
2018-02-05T16:15:15.364Z,59.20
2018-02-05T16:17:43.739Z,59.80
2018-02-05T16:20:11.328Z,59.70
2018-02-05T16:22:38.946Z,59.80
2018-02-05T16:25:06.546Z,60.20
2018-02-05T16:27:34.132Z,60.50
2018-02-05T16:30:01.755Z,60.90
2018-02-05T16:32:30.075Z,61.60
2018-02-05T16:34:57.715Z,61.50
2018-02-05T16:37:25.348Z,61.60
2018-02-05T16:39:53.734Z,62.10
2018-02-05T16:42:31.874Z,62.50
2018-02-05T16:44:59.422Z,62.30
2018-02-05T16:47:27.059Z,62.70
2018-02-05T16:49:55.383Z,62.50
2018-02-05T16:52:22.998Z,62.30
2018-02-05T16:54:51.350Z,61.50
2018-02-05T16:57:18.968Z,61.40
2018-02-05T16:59:46.539Z,61.40
2018-02-05T17:02:14.157Z,61.50
2018-02-05T17:04:44.465Z,62.50
2018-02-05T17:07:35.941Z,62.20
2018-02-05T17:10:03.585Z,62.20
2018-02-05T17:12:31.216Z,62.60
2018-02-05T17:14:58.808Z,62.00
2018-02-05T17:17:26.458Z,62.40
2018-02-05T17:19:54.051Z,62.00
2018-02-05T17:22:23.732Z,61.90
2018-02-05T17:24:51.317Z,61.80
2018-02-05T17:27:18.947Z,61.70
2018-02-05T17:29:46.558Z,62.00
2018-02-05T17:32:14.112Z,61.50
2018-02-05T17:34:41.755Z,62.10
2018-02-05T17:37:09.312Z,61.50
2018-02-05T17:39:36.921Z,62.30
2018-02-05T17:42:05.293Z,63.50
2018-02-05T17:44:33.658Z,62.40
2018-02-05T17:47:01.275Z,62.50
2018-02-05T17:49:28.913Z,62.20
2018-02-05T17:52:06.647Z,62.20
2018-02-05T17:54:34.253Z,62.60
2018-02-05T17:57:01.878Z,62.70
2018-02-05T17:59:29.446Z,62.30
2018-02-05T18:01:57.082Z,61.60
2018-02-05T18:04:24.694Z,61.60
2018-02-05T18:06:52.273Z,61.80
2018-02-05T18:09:20.643Z,61.60
2018-02-05T18:11:49.046Z,62.00
2018-02-05T18:14:16.663Z,62.00
2018-02-05T18:16:49.193Z,62.60
2018-02-05T18:19:24.896Z,63.00
2018-02-05T18:21:52.506Z,62.50
2018-02-05T18:24:26.555Z,62.60
2018-02-05T18:26:54.122Z,62.30
2018-02-05T18:29:21.748Z,62.00
2018-02-05T18:32:00.765Z,62.90
2018-02-05T18:40:15.820Z,64.70
2018-02-05T18:42:58.034Z,64.70
2018-02-05T18:45:27.684Z,64.70
2018-02-05T18:47:55.334Z,66.70
2018-02-05T18:50:35.461Z,66.50
2018-02-05T18:53:03.802Z,65.70
2018-02-05T18:55:51.819Z,65.70
2018-02-05T18:58:23.627Z,65.70
2018-02-05T19:06:51.349Z,65.40
2018-02-05T19:12:24.083Z,66.00
2018-02-05T19:14:51.704Z,65.90
2018-02-05T19:17:33.615Z,66.10
2018-02-05T19:20:01.255Z,66.10
2018-02-05T19:22:36.563Z,66.60
2018-02-05T19:25:18.523Z,66.50
2018-02-05T19:27:51.076Z,66.40
2018-02-05T19:33:29.578Z,65.30
2018-02-05T19:38:55.031Z,65.90
2018-02-05T19:41:23.441Z,66.20
2018-02-05T19:43:51.962Z,66.10
2018-02-05T19:46:19.586Z,66.40
2018-02-05T19:48:55.268Z,67.10
2018-02-05T19:51:45.935Z,67.90
2018-02-05T19:54:13.569Z,69.60
2018-02-05T19:56:59.297Z,69.70
2018-02-05T19:59:26.873Z,69.70
2018-02-05T20:02:18.375Z,69.00
2018-02-05T20:04:45.981Z,68.30
2018-02-05T20:07:34.675Z,68.20
2018-02-05T20:10:15.806Z,68.40
2018-02-05T20:12:43.451Z,68.50
2018-02-05T20:15:36.657Z,68.80
2018-02-05T20:18:04.301Z,68.70
2018-02-05T20:20:46.921Z,69.40
2018-02-05T20:23:27.883Z,69.40
2018-02-05T20:25:55.532Z,69.80
2018-02-05T20:28:23.131Z,72.50
2018-02-05T20:30:50.762Z,71.50
2018-02-05T20:33:18.376Z,72.00
2018-02-05T20:35:45.964Z,72.50
2018-02-05T20:38:13.575Z,72.00
2018-02-05T20:40:41.238Z,70.70
2018-02-05T20:43:12.663Z,70.40
2018-02-05T20:45:41.051Z,70.20
2018-02-05T20:48:08.636Z,70.10
2018-02-05T20:50:42.051Z,70.50
2018-02-05T20:53:09.666Z,70.40
2018-02-05T20:55:37.999Z,70.50
2018-02-05T20:58:05.594Z,70.50
2018-02-05T21:00:33.799Z,69.60
2018-02-05T21:03:01.423Z,69.00
2018-02-05T21:05:29.027Z,68.10
2018-02-05T21:07:56.659Z,68.60
2018-02-05T21:10:25.062Z,69.90
2018-02-05T21:12:52.631Z,69.80
2018-02-05T21:15:20.235Z,70.10
2018-02-05T21:17:47.824Z,70.80
2018-02-05T21:20:15.396Z,70.60
2018-02-05T21:22:42.999Z,70.50
2018-02-05T21:25:10.644Z,70.50
2018-02-05T21:27:38.291Z,71.10
2018-02-05T21:30:05.915Z,71.20
2018-02-05T21:32:34.314Z,70.80
2018-02-05T21:35:01.903Z,70.80
2018-02-05T21:37:29.517Z,70.90
2018-02-05T21:39:57.878Z,69.60
2018-02-05T21:42:25.491Z,69.60
2018-02-05T21:44:58.214Z,69.10
2018-02-05T21:47:25.851Z,68.80
2018-02-05T21:49:53.448Z,68.60
2018-02-05T21:52:21.006Z,69.40
2018-02-05T21:54:49.352Z,70.40
2018-02-05T21:57:16.929Z,70.30
2018-02-05T21:59:44.507Z,71.00
2018-02-05T22:02:12.877Z,71.10
2018-02-05T22:04:41.245Z,70.60
2018-02-05T22:07:08.854Z,70.20
2018-02-05T22:09:36.488Z,70.50
2018-02-05T22:12:04.859Z,70.20
2018-02-05T22:14:32.492Z,70.20
2018-02-05T22:17:00.056Z,70.10
2018-02-05T22:19:27.672Z,69.60
2018-02-05T22:21:55.305Z,69.00
2018-02-05T22:24:23.668Z,68.70
2018-02-05T22:26:51.282Z,68.60
2018-02-05T22:29:18.894Z,68.80
2018-02-05T22:31:47.947Z,70.60
2018-02-05T22:34:15.539Z,69.00
2018-02-05T22:36:43.126Z,69.50
2018-02-05T22:39:11.486Z,69.60
2018-02-05T22:41:39.083Z,69.60
2018-02-05T22:44:06.698Z,69.40
2018-02-05T22:46:34.260Z,68.90
2018-02-05T22:49:01.871Z,68.80
2018-02-05T22:51:29.527Z,68.60
2018-02-05T22:53:57.098Z,67.90
2018-02-05T22:56:24.666Z,68.00
2018-02-05T22:58:52.240Z,68.20
2018-02-05T23:01:19.859Z,67.60
2018-02-05T23:03:47.429Z,67.70
2018-02-05T23:06:34.143Z,67.40
2018-02-05T23:09:01.710Z,67.70
2018-02-05T23:11:30.129Z,67.80
2018-02-05T23:13:57.745Z,67.80
2018-02-05T23:16:25.390Z,67.20
2018-02-05T23:18:53.020Z,67.00
2018-02-05T23:21:20.589Z,66.60
2018-02-05T23:23:48.964Z,66.50
2018-02-05T23:26:16.549Z,66.50
2018-02-05T23:28:44.211Z,66.80
2018-02-05T23:31:11.774Z,66.30
2018-02-05T23:33:39.378Z,66.30
2018-02-05T23:36:06.945Z,66.20
2018-02-05T23:38:34.547Z,66.40
2018-02-05T23:41:02.164Z,66.60
2018-02-05T23:43:29.788Z,66.50
2018-02-05T23:45:57.398Z,67.10
2018-02-05T23:48:24.987Z,68.10
2018-02-05T23:50:52.583Z,68.60
2018-02-05T23:53:20.158Z,69.40
2018-02-05T23:55:47.790Z,69.60
2018-02-05T23:58:15.403Z,69.60
